Flight Track Log - Related Links

Times and Time Zones

All times are in EDT time to prevent confusion due to time zone crossing. See the UAL4335 flight status page for this flight to view local times or setup timezone preferences in your user account.

Time Position Orientation Groundspeed Altitude Reporting Facility
EDT Latitude Longitude Course Direction KTS MPH feet Rate Location/Type
Thu 03:57:34 PM 40.6667 -74.1833 237° Southwest 162 186 1,300  Level New York TRACON
Thu 03:58:34 PM 40.6333 -74.2500 237° Southwest 234 269 2,800 2,150 Climbing New York TRACON
Thu 03:59:34 PM 40.6333 -74.3333 270° West 239 275 5,600 2,281 Climbing New York TRACON
Thu 04:01:46 PM 40.6453 -74.5372 274° West 260 299 10,100 1,594 Climbing New York Center
Thu 04:02:46 PM 40.6542 -74.6500 276° West 286 329 10,700 1,041 Climbing New York Center
Thu 04:03:47 PM 40.6625 -74.7708 275° West 331 381 12,200 1,672 Climbing New York Center
Thu 04:04:48 PM 40.6711 -74.8861 276° West 331 381 14,100 1,525 Climbing New York Center
Thu 04:05:49 PM 40.6794 -75.0069 275° West 331 381 15,300 1,119 Climbing New York Center
Thu 04:06:46 PM 40.6625 -75.1264 259° West 330 380 16,300 1,068 Climbing New York Center
Thu 04:07:47 PM 40.6128 -75.2325 238° Southwest 330 380 17,400 934 Climbing New York Center
Thu 04:08:48 PM 40.5628 -75.3414 239° Southwest 342 394 18,200 908 Climbing New York Center
Thu 04:09:46 PM 40.5125 -75.4528 239° Southwest 349 402 19,200 1,008 Climbing New York Center
Thu 04:10:47 PM 40.4619 -75.5667 240° Southwest 354 407 20,200 984 Climbing New York Center
Thu 04:11:48 PM 40.4094 -75.6800 239° Southwest 364 419 21,200 1,000 Climbing New York Center
Thu 04:12:47 PM 40.3544 -75.7989 239° Southwest 374 430 22,200 1,000 Climbing New York Center
Thu 04:13:48 PM 40.3000 -75.9036 236° Southwest 381 438 23,200 1,008 Climbing New York Center
Thu 04:14:46 PM 40.2447 -76.0219 239° Southwest 381 438 24,200 1,008 Climbing New York Center
Thu 04:15:47 PM 40.1914 -76.1403 239° Southwest 381 438 25,200 987 Climbing New York Center
Thu 04:17:24 PM 40.1008 -76.3400 239° Southwest 381 438 26,800 994 Climbing Washington Center
Thu 04:18:24 PM 40.0458 -76.4586 239° Southwest 381 438 27,800 800 Climbing Washington Center
Thu 04:19:24 PM 39.9931 -76.5636 237° Southwest 387 445 28,400 550 Climbing Washington Center
Thu 04:20:24 PM 39.9378 -76.6847 239° Southwest 387 445 28,900 550 Climbing Washington Center
Thu 04:21:24 PM 39.8742 -76.8161 238° Southwest 387 445 29,500 550 Climbing Washington Center
Thu 04:22:24 PM 39.8167 -76.9394 239° Southwest 392 451 30,000 250 Climbing Washington Center
Thu 04:23:24 PM 39.7567 -77.0653 238° Southwest 406 467 30,000  Level Washington Center
Thu 04:24:24 PM 39.6967 -77.1961 239° Southwest 412 474 30,000  Level Washington Center
Thu 04:25:24 PM 39.6325 -77.3294 238° Southwest 426 490 30,000  Level Washington Center
Thu 04:26:24 PM 39.5722 -77.4572 239° Southwest 431 496 30,000  Level Washington Center
Thu 04:27:24 PM 39.5097 -77.5875 238° Southwest 426 490 30,000  Level Washington Center
Thu 04:28:24 PM 39.4492 -77.7175 239° Southwest 426 490 30,000  Level Washington Center
Thu 04:29:24 PM 39.3883 -77.8444 238° Southwest 426 490 30,000  Level Washington Center
Thu 04:30:24 PM 39.3336 -77.9797 242° Southwest 421 484 30,000  Level Washington Center
Thu 04:31:24 PM 39.2789 -78.1172 243° Southwest 421 484 30,000  Level Washington Center
Thu 04:32:24 PM 39.2258 -78.2522 243° Southwest 426 490 30,000  Level Washington Center
Thu 04:33:24 PM 39.1708 -78.3839 242° Southwest 426 490 30,000  Level Washington Center
Thu 04:34:24 PM 39.1219 -78.5053 243° Southwest 426 490 30,000  Level Washington Center
Thu 04:35:24 PM 39.0708 -78.6394 244° Southwest 426 490 30,000  Level Washington Center
Thu 04:36:24 PM 39.0153 -78.7708 241° Southwest 426 490 30,000  Level Washington Center
Thu 04:37:24 PM 38.9636 -78.9047 244° Southwest 426 490 30,000  Level Washington Center
Thu 04:38:24 PM 38.9408 -79.0531 259° West 421 484 30,000  Level Washington Center
Thu 04:39:24 PM 38.9258 -79.2072 263° West 427 491 30,000  Level Washington Center
Thu 04:40:24 PM 38.9086 -79.3611 262° West 432 497 30,000  Level Washington Center
Thu 04:41:24 PM 38.8911 -79.5122 262° West 432 497 30,000  Level Washington Center
Thu 04:42:24 PM 38.8708 -79.6872 262° West 451 519 30,000  Level Washington Center
Thu 04:43:24 PM 38.8531 -79.8408 262° West 446 513 30,000  Level Washington Center
Thu 04:44:24 PM 38.8356 -79.9783 261° West 441 507 30,000  Level Washington Center
Thu 04:45:56 PM 38.8053 -80.2164 261° West 434 499 30,000  Level Indianapolis Center
Thu 04:46:58 PM 38.7856 -80.3706 261° West 437 503 30,000  Level Indianapolis Center
Thu 04:47:59 PM 38.7669 -80.5233 261° West 434 499 30,000  Level Indianapolis Center
Thu 04:49:01 PM 38.7489 -80.6772 261° West 437 503 30,000  Level Indianapolis Center
Thu 04:50:03 PM 38.7294 -80.8286 261° West 432 497 30,000  Level Indianapolis Center
Thu 04:51:05 PM 38.7106 -80.9808 261° West 431 496 30,000  Level Indianapolis Center
Thu 04:52:06 PM 38.6878 -81.1617 261° West 429 494 30,000  Level Indianapolis Center
Thu 04:53:08 PM 38.6672 -81.3117 260° West 426 490 30,000 -435 Level Indianapolis Center
Thu 04:54:10 PM 38.6489 -81.4497 260° West 423 487 29,100 -1,016 Descending Indianapolis Center
Thu 04:55:12 PM 38.6264 -81.6222 261° West 421 484 27,900 -1,065 Descending Indianapolis Center
Thu 04:56:14 PM 38.6067 -81.7733 261° West 435 501 26,900 -976 Descending Indianapolis Center
Thu 04:57:15 PM 38.5858 -81.9286 260° West 441 507 25,900 -976 Descending Indianapolis Center
Thu 04:58:17 PM 38.5642 -82.0869 260° West 445 512 24,900 -919 Descending Indianapolis Center
Thu 04:59:19 PM 38.5436 -82.2356 260° West 433 498 24,000 -435 Descending Indianapolis Center
Thu 05:00:21 PM 38.5225 -82.3850 260° West 427 491 24,000 -390 Level Indianapolis Center
Thu 05:01:22 PM 38.5019 -82.5308 260° West 417 480 23,200 -976 Descending Indianapolis Center
Thu 05:02:24 PM 38.4956 -82.7000 267° West 424 488 22,000 -1,161 Descending Indianapolis Center
Thu 05:03:26 PM 38.5092 -82.8436 277° West 412 474 20,800 -1,366 Descending Indianapolis Center
Thu 05:04:27 PM 38.5231 -82.9778 278° West 393 452 19,200 -1,659 Descending Indianapolis Center
Thu 05:05:29 PM 38.5339 -83.0908 277° West 342 394 17,400 -1,645 Descending Indianapolis Center
Thu 05:06:31 PM 38.5453 -83.2033 277° West 323 372 15,800 -1,548 Descending Indianapolis Center
Thu 05:07:33 PM 38.5569 -83.3142 278° West 318 366 14,200 -1,707 Descending Indianapolis Center
Thu 05:08:34 PM 38.5692 -83.4467 277° West 322 371 12,300 -1,756 Descending Indianapolis Center
Thu 05:09:36 PM 38.5792 -83.5536 277° West 307 353 10,600 -1,113 Descending Indianapolis Center
Thu 05:10:38 PM 38.5897 -83.6550 278° West 293 337 10,000 -293 Descending Indianapolis Center
Thu 05:11:39 PM 38.5986 -83.7575 276° West 292 336 10,000  Level Indianapolis Center
Thu 05:12:41 PM 38.6081 -83.8569 277° West 285 328 10,000  Level Indianapolis Center
Thu 05:13:43 PM 38.6322 -83.9581 287° West 307 353 10,000 -49 Level Indianapolis Center
Thu 05:14:44 PM 38.6828 -84.0575 303° West 303 349 9,900 -49 Descending Indianapolis Center
Thu 05:15:46 PM 38.7306 -84.1475 304° West 303 349 9,900  Level Indianapolis Center
Thu 05:16:48 PM 38.7781 -84.2392 304° West 305 351 9,900 -49 Level Indianapolis Center
Thu 05:17:49 PM 38.8253 -84.3300 304° West 304 350 9,800 -488 Descending Indianapolis Center
Thu 05:18:51 PM 38.8653 -84.4092 303° West 272 313 8,900 -482 Descending Indianapolis Center
Thu 05:19:41 PM 38.9000 -84.4833 301° West 266 306 8,900  Level Cincinnati TRACON
Thu 05:20:41 PM 38.9667 -84.5333 330° Northwest 304 350 8,900 -500 Level Cincinnati TRACON
Thu 05:21:41 PM 39.0500 -84.5333 360° North 295 339 7,900 -1,158 Descending Cincinnati TRACON
Thu 05:22:35 PM 39.1167 -84.5333 360° North 246 283 6,700 -1,658 Descending Cincinnati TRACON
Thu 05:22:57 PM 39.1439 -84.5431 345° North 276 318 5,800 -2,071 Descending Indianapolis Center
Thu 05:23:59 PM 39.2139 -84.5514 355° North 267 307 3,800 -1,258 Descending Indianapolis Center
Thu 05:25:01 PM 39.2328 -84.6231 289° West 266 306 3,200 -923 Descending Indianapolis Center
Thu 05:25:30 PM 39.2000 -84.6500 213° Southwest 186 214 2,400 -1,655 Descending Cincinnati TRACON

Login

Don't have an account? Register now (free) for customized features, flight alerts, and more!